sensor_id;sensor_type;location;lat;lon;timestamp;pressure;altitude;pressure_sealevel;temperature;humidity
43115;BME280;28727;50.068;14.452;2022-12-22T00:00:04;98995.38;;;3.77;83.23
43115;BME280;28727;50.068;14.452;2022-12-22T00:02:55;98979.03;;;3.85;84.75
43115;BME280;28727;50.068;14.452;2022-12-22T00:05:46;98985.50;;;3.90;84.17
43115;BME280;28727;50.068;14.452;2022-12-22T00:08:36;98975.47;;;3.95;83.70
43115;BME280;28727;50.068;14.452;2022-12-22T00:11:34;98978.78;;;3.97;83.32
43115;BME280;28727;50.068;14.452;2022-12-22T00:14:24;98970.94;;;3.97;83.61
43115;BME280;28727;50.068;14.452;2022-12-22T00:17:25;98969.03;;;3.99;83.40
43115;BME280;28727;50.068;14.452;2022-12-22T00:20:18;98965.72;;;3.97;82.99
43115;BME280;28727;50.068;14.452;2022-12-22T00:23:09;98961.44;;;3.96;83.21
43115;BME280;28727;50.068;14.452;2022-12-22T00:26:00;98958.69;;;3.88;82.64
43115;BME280;28727;50.068;14.452;2022-12-22T00:28:51;98955.09;;;3.89;83.18
43115;BME280;28727;50.068;14.452;2022-12-22T00:31:41;98952.50;;;3.89;82.96
43115;BME280;28727;50.068;14.452;2022-12-22T00:34:39;98943.16;;;3.87;82.55
43115;BME280;28727;50.068;14.452;2022-12-22T00:37:33;98937.09;;;3.86;82.68
43115;BME280;28727;50.068;14.452;2022-12-22T00:40:27;98937.50;;;3.82;82.21
43115;BME280;28727;50.068;14.452;2022-12-22T00:43:17;98940.81;;;3.74;82.20
43115;BME280;28727;50.068;14.452;2022-12-22T00:46:08;98939.97;;;3.74;82.17
43115;BME280;28727;50.068;14.452;2022-12-22T00:49:00;98942.72;;;3.72;82.70
43115;BME280;28727;50.068;14.452;2022-12-22T00:51:51;98946.97;;;3.73;83.23
43115;BME280;28727;50.068;14.452;2022-12-22T00:54:41;98953.16;;;3.72;82.65
43115;BME280;28727;50.068;14.452;2022-12-22T00:57:32;98953.44;;;3.69;82.15
43115;BME280;28727;50.068;14.452;2022-12-22T01:00:22;98942.41;;;3.65;82.40
43115;BME280;28727;50.068;14.452;2022-12-22T01:03:13;98941.88;;;3.62;82.55
43115;BME280;28727;50.068;14.452;2022-12-22T01:06:08;98954.66;;;3.55;82.71
43115;BME280;28727;50.068;14.452;2022-12-22T01:08:58;98948.19;;;3.50;82.99
43115;BME280;28727;50.068;14.452;2022-12-22T01:11:49;98938.44;;;3.52;83.15
43115;BME280;28727;50.068;14.452;2022-12-22T01:14:42;98932.38;;;3.51;82.79
43115;BME280;28727;50.068;14.452;2022-12-22T01:17:33;98932.25;;;3.53;83.26
43115;BME280;28727;50.068;14.452;2022-12-22T01:20:23;98930.72;;;3.50;82.91
43115;BME280;28727;50.068;14.452;2022-12-22T01:23:13;98936.34;;;3.46;82.47
43115;BME280;28727;50.068;14.452;2022-12-22T01:26:07;98932.63;;;3.39;82.28
43115;BME280;28727;50.068;14.452;2022-12-22T01:28:58;98939.75;;;3.37;82.66
43115;BME280;28727;50.068;14.452;2022-12-22T01:31:48;98940.56;;;3.37;83.02
43115;BME280;28727;50.068;14.452;2022-12-22T01:34:39;98928.47;;;3.36;82.78
43115;BME280;28727;50.068;14.452;2022-12-22T01:37:29;98925.31;;;3.33;83.03
43115;BME280;28727;50.068;14.452;2022-12-22T01:40:22;98921.19;;;3.30;82.67
43115;BME280;28727;50.068;14.452;2022-12-22T01:43:20;98907.47;;;3.28;82.93
43115;BME280;28727;50.068;14.452;2022-12-22T01:46:22;98904.97;;;3.26;82.49
43115;BME280;28727;50.068;14.452;2022-12-22T01:49:16;98904.16;;;3.26;82.73
43115;BME280;28727;50.068;14.452;2022-12-22T01:52:10;98907.47;;;3.28;83.48
43115;BME280;28727;50.068;14.452;2022-12-22T01:55:04;98899.50;;;3.29;83.00
43115;BME280;28727;50.068;14.452;2022-12-22T01:57:56;98895.50;;;3.25;82.73
43115;BME280;28727;50.068;14.452;2022-12-22T02:00:47;98879.16;;;3.23;82.91
43115;BME280;28727;50.068;14.452;2022-12-22T02:03:37;98877.91;;;3.18;82.81
43115;BME280;28727;50.068;14.452;2022-12-22T02:06:34;98876.09;;;3.18;83.72
43115;BME280;28727;50.068;14.452;2022-12-22T02:09:47;98858.81;;;3.17;83.04
43115;BME280;28727;50.068;14.452;2022-12-22T02:12:53;98860.72;;;3.15;83.24
43115;BME280;28727;50.068;14.452;2022-12-22T02:15:55;98853.84;;;3.14;83.57
43115;BME280;28727;50.068;14.452;2022-12-22T02:25:26;98847.41;;;3.18;83.19
43115;BME280;28727;50.068;14.452;2022-12-22T02:28:20;98844.13;;;3.16;83.45
43115;BME280;28727;50.068;14.452;2022-12-22T02:31:11;98833.94;;;3.13;83.61
43115;BME280;28727;50.068;14.452;2022-12-22T02:34:02;98838.31;;;3.13;83.60
43115;BME280;28727;50.068;14.452;2022-12-22T02:37:07;98846.16;;;3.13;83.49
43115;BME280;28727;50.068;14.452;2022-12-22T02:46:32;98839.31;;;3.12;83.06
43115;BME280;28727;50.068;14.452;2022-12-22T02:50:05;98821.84;;;3.12;83.50
43115;BME280;28727;50.068;14.452;2022-12-22T02:52:59;98831.31;;;3.13;83.30
43115;BME280;28727;50.068;14.452;2022-12-22T02:55:59;98836.84;;;3.10;83.38
43115;BME280;28727;50.068;14.452;2022-12-22T02:58:51;98835.47;;;3.06;83.25
43115;BME280;28727;50.068;14.452;2022-12-22T03:01:44;98849.31;;;3.07;83.74
43115;BME280;28727;50.068;14.452;2022-12-22T03:04:35;98850.94;;;3.08;83.41
43115;BME280;28727;50.068;14.452;2022-12-22T03:07:26;98858.94;;;3.06;82.78
43115;BME280;28727;50.068;14.452;2022-12-22T03:10:16;98871.28;;;3.04;82.66
43115;BME280;28727;50.068;14.452;2022-12-22T03:13:06;98880.19;;;3.02;83.14
43115;BME280;28727;50.068;14.452;2022-12-22T03:15:56;98887.19;;;3.01;83.42
43115;BME280;28727;50.068;14.452;2022-12-22T03:18:47;98889.13;;;2.99;83.66
43115;BME280;28727;50.068;14.452;2022-12-22T03:21:37;98871.69;;;3.00;83.67
43115;BME280;28727;50.068;14.452;2022-12-22T03:24:27;98874.13;;;3.01;83.59
43115;BME280;28727;50.068;14.452;2022-12-22T03:27:17;98866.84;;;2.95;83.47
43115;BME280;28727;50.068;14.452;2022-12-22T03:29:49;98865.88;;;2.96;83.38
43115;BME280;28727;50.068;14.452;2022-12-22T03:32:21;98861.38;;;2.98;84.09
43115;BME280;28727;50.068;14.452;2022-12-22T03:34:52;98855.88;;;3.01;84.00
43115;BME280;28727;50.068;14.452;2022-12-22T03:37:24;98849.31;;;3.07;84.52
43115;BME280;28727;50.068;14.452;2022-12-22T03:39:56;98839.31;;;3.12;84.92
43115;BME280;28727;50.068;14.452;2022-12-22T03:42:27;98826.81;;;3.15;84.70
43115;BME280;28727;50.068;14.452;2022-12-22T03:45:18;98824.06;;;3.17;84.72
43115;BME280;28727;50.068;14.452;2022-12-22T03:48:10;98817.06;;;3.17;84.73
43115;BME280;28727;50.068;14.452;2022-12-22T03:50:42;98818.31;;;3.23;84.27
43115;BME280;28727;50.068;14.452;2022-12-22T03:53:14;98811.31;;;3.23;84.43
43115;BME280;28727;50.068;14.452;2022-12-22T03:55:46;98808.41;;;3.26;84.31
43115;BME280;28727;50.068;14.452;2022-12-22T03:58:17;98809.13;;;3.28;84.98
43115;BME280;28727;50.068;14.452;2022-12-22T04:00:49;98806.09;;;3.33;84.86
43115;BME280;28727;50.068;14.452;2022-12-22T04:03:21;98798.81;;;3.37;84.45
43115;BME280;28727;50.068;14.452;2022-12-22T04:05:53;98795.22;;;3.38;84.53
43115;BME280;28727;50.068;14.452;2022-12-22T04:08:24;98781.50;;;3.36;84.76
43115;BME280;28727;50.068;14.452;2022-12-22T04:10:56;98786.72;;;3.36;85.07
43115;BME280;28727;50.068;14.452;2022-12-22T04:13:46;98784.91;;;3.36;85.07
43115;BME280;28727;50.068;14.452;2022-12-22T04:16:18;98776.97;;;3.38;84.97
43115;BME280;28727;50.068;14.452;2022-12-22T04:18:50;98780.13;;;3.41;84.05
43115;BME280;28727;50.068;14.452;2022-12-22T04:21:22;98775.31;;;3.46;84.56
43115;BME280;28727;50.068;14.452;2022-12-22T04:23:54;98780.38;;;3.48;84.11
43115;BME280;28727;50.068;14.452;2022-12-22T04:26:26;98768.16;;;3.48;84.99
43115;BME280;28727;50.068;14.452;2022-12-22T04:28:58;98763.50;;;3.52;85.08
43115;BME280;28727;50.068;14.452;2022-12-22T04:31:30;98751.81;;;3.56;85.65
43115;BME280;28727;50.068;14.452;2022-12-22T04:34:02;98741.75;;;3.61;85.30
43115;BME280;28727;50.068;14.452;2022-12-22T04:36:34;98750.00;;;3.66;85.96
43115;BME280;28727;50.068;14.452;2022-12-22T04:39:06;98752.34;;;3.69;85.55
43115;BME280;28727;50.068;14.452;2022-12-22T04:41:37;98765.13;;;3.72;85.98
43115;BME280;28727;50.068;14.452;2022-12-22T04:44:09;98763.72;;;3.78;85.86
43115;BME280;28727;50.068;14.452;2022-12-22T04:46:41;98752.88;;;3.82;85.22
43115;BME280;28727;50.068;14.452;2022-12-22T04:49:12;98767.00;;;3.89;85.65
43115;BME280;28727;50.068;14.452;2022-12-22T04:51:44;98763.28;;;3.92;85.44
43115;BME280;28727;50.068;14.452;2022-12-22T04:54:16;98770.69;;;3.96;85.15
43115;BME280;28727;50.068;14.452;2022-12-22T04:56:49;98779.09;;;4.00;85.41
43115;BME280;28727;50.068;14.452;2022-12-22T04:59:21;98761.34;;;4.03;85.67
43115;BME280;28727;50.068;14.452;2022-12-22T05:01:55;98759.13;;;4.08;85.62
43115;BME280;28727;50.068;14.452;2022-12-22T05:04:27;98771.75;;;4.13;85.52
43115;BME280;28727;50.068;14.452;2022-12-22T05:06:59;98764.75;;;4.13;84.99
43115;BME280;28727;50.068;14.452;2022-12-22T05:09:31;98762.69;;;4.17;85.22
43115;BME280;28727;50.068;14.452;2022-12-22T05:12:03;98757.97;;;4.21;85.21
43115;BME280;28727;50.068;14.452;2022-12-22T05:14:58;98755.38;;;4.21;85.80
43115;BME280;28727;50.068;14.452;2022-12-22T05:17:29;98746.94;;;4.27;85.28
43115;BME280;28727;50.068;14.452;2022-12-22T05:20:01;98738.97;;;4.28;85.11
43115;BME280;28727;50.068;14.452;2022-12-22T05:22:33;98741.16;;;4.33;85.61
43115;BME280;28727;50.068;14.452;2022-12-22T05:25:05;98734.66;;;4.37;85.27
43115;BME280;28727;50.068;14.452;2022-12-22T05:27:37;98733.41;;;4.41;85.24
43115;BME280;28727;50.068;14.452;2022-12-22T05:30:10;98723.78;;;4.41;85.04
43115;BME280;28727;50.068;14.452;2022-12-22T05:32:45;98725.56;;;4.41;85.41
43115;BME280;28727;50.068;14.452;2022-12-22T05:35:17;98718.25;;;4.44;85.06
43115;BME280;28727;50.068;14.452;2022-12-22T05:37:49;98716.75;;;4.42;84.87
43115;BME280;28727;50.068;14.452;2022-12-22T05:40:20;98711.38;;;4.43;85.07
43115;BME280;28727;50.068;14.452;2022-12-22T05:42:52;98707.94;;;4.43;84.79
43115;BME280;28727;50.068;14.452;2022-12-22T05:45:24;98706.69;;;4.47;85.03
43115;BME280;28727;50.068;14.452;2022-12-22T05:47:56;98697.72;;;4.49;84.83
43115;BME280;28727;50.068;14.452;2022-12-22T05:50:28;98699.22;;;4.52;85.00
43115;BME280;28727;50.068;14.452;2022-12-22T05:53:07;98693.03;;;4.53;84.69
43115;BME280;28727;50.068;14.452;2022-12-22T05:55:39;98681.44;;;4.56;84.38
43115;BME280;28727;50.068;14.452;2022-12-22T05:58:10;98682.94;;;4.58;84.62
43115;BME280;28727;50.068;14.452;2022-12-22T06:00:42;98680.34;;;4.58;84.56
43115;BME280;28727;50.068;14.452;2022-12-22T06:03:14;98675.38;;;4.55;84.65
43115;BME280;28727;50.068;14.452;2022-12-22T06:05:48;98675.94;;;4.59;84.20
43115;BME280;28727;50.068;14.452;2022-12-22T06:08:21;98669.69;;;4.60;84.36
43115;BME280;28727;50.068;14.452;2022-12-22T06:10:54;98659.94;;;4.62;84.48
43115;BME280;28727;50.068;14.452;2022-12-22T06:13:26;98658.66;;;4.66;84.36
43115;BME280;28727;50.068;14.452;2022-12-22T06:15:57;98671.31;;;4.70;84.08
43115;BME280;28727;50.068;14.452;2022-12-22T06:18:29;98663.16;;;4.73;83.93
43115;BME280;28727;50.068;14.452;2022-12-22T06:21:01;98661.34;;;4.74;84.30
43115;BME280;28727;50.068;14.452;2022-12-22T06:23:33;98656.50;;;4.79;84.55
43115;BME280;28727;50.068;14.452;2022-12-22T06:26:04;98651.81;;;4.82;84.62
43115;BME280;28727;50.068;14.452;2022-12-22T06:28:36;98651.34;;;4.87;85.10
43115;BME280;28727;50.068;14.452;2022-12-22T06:31:08;98665.31;;;4.95;85.49
43115;BME280;28727;50.068;14.452;2022-12-22T06:33:40;98662.28;;;5.00;84.87
43115;BME280;28727;50.068;14.452;2022-12-22T06:36:11;98660.84;;;5.06;84.74
43115;BME280;28727;50.068;14.452;2022-12-22T06:38:43;98653.50;;;5.09;84.46
43115;BME280;28727;50.068;14.452;2022-12-22T06:41:15;98659.41;;;5.11;84.72
43115;BME280;28727;50.068;14.452;2022-12-22T06:44:06;98657.44;;;5.13;84.76
43115;BME280;28727;50.068;14.452;2022-12-22T06:46:38;98662.69;;;5.13;84.86
43115;BME280;28727;50.068;14.452;2022-12-22T06:49:10;98652.22;;;5.13;84.74
43115;BME280;28727;50.068;14.452;2022-12-22T06:51:42;98651.78;;;5.18;84.55
43115;BME280;28727;50.068;14.452;2022-12-22T06:54:14;98659.47;;;5.19;84.13
43115;BME280;28727;50.068;14.452;2022-12-22T06:56:52;98648.16;;;5.19;84.63
43115;BME280;28727;50.068;14.452;2022-12-22T06:59:24;98649.22;;;5.26;84.57
43115;BME280;28727;50.068;14.452;2022-12-22T07:01:56;98647.41;;;5.26;84.45
43115;BME280;28727;50.068;14.452;2022-12-22T07:04:28;98668.22;;;5.28;84.27
43115;BME280;28727;50.068;14.452;2022-12-22T07:07:01;98652.50;;;5.28;84.63
43115;BME280;28727;50.068;14.452;2022-12-22T07:09:33;98663.13;;;5.26;84.86
43115;BME280;28727;50.068;14.452;2022-12-22T07:12:04;98653.34;;;5.28;84.93
43115;BME280;28727;50.068;14.452;2022-12-22T07:14:36;98644.19;;;5.32;84.54
43115;BME280;28727;50.068;14.452;2022-12-22T07:17:08;98652.34;;;5.29;84.42
43115;BME280;28727;50.068;14.452;2022-12-22T07:19:40;98646.81;;;5.32;84.21
43115;BME280;28727;50.068;14.452;2022-12-22T07:22:12;98647.78;;;5.31;84.04
43115;BME280;28727;50.068;14.452;2022-12-22T07:24:44;98638.81;;;5.34;83.94
43115;BME280;28727;50.068;14.452;2022-12-22T07:27:15;98632.75;;;5.33;83.68
43115;BME280;28727;50.068;14.452;2022-12-22T07:29:47;98626.69;;;5.33;83.56
43115;BME280;28727;50.068;14.452;2022-12-22T07:32:19;98618.97;;;5.31;83.98
43115;BME280;28727;50.068;14.452;2022-12-22T07:34:50;98616.22;;;5.33;83.72
43115;BME280;28727;50.068;14.452;2022-12-22T07:37:22;98616.53;;;5.30;83.83
43115;BME280;28727;50.068;14.452;2022-12-22T07:39:54;98623.09;;;5.34;83.87
43115;BME280;28727;50.068;14.452;2022-12-22T07:42:26;98612.97;;;5.39;83.96
43115;BME280;28727;50.068;14.452;2022-12-22T07:45:18;98599.06;;;5.39;83.81
43115;BME280;28727;50.068;14.452;2022-12-22T07:47:50;98597.25;;;5.39;83.70
43115;BME280;28727;50.068;14.452;2022-12-22T07:50:22;98589.25;;;5.41;83.87
43115;BME280;28727;50.068;14.452;2022-12-22T07:53:02;98589.75;;;5.44;83.97
43115;BME280;28727;50.068;14.452;2022-12-22T07:55:35;98597.00;;;5.50;83.81
43115;BME280;28727;50.068;14.452;2022-12-22T07:58:07;98591.47;;;5.53;83.97
43115;BME280;28727;50.068;14.452;2022-12-22T08:00:38;98578.53;;;5.60;83.89
43115;BME280;28727;50.068;14.452;2022-12-22T08:03:10;98578.53;;;5.60;83.69
43115;BME280;28727;50.068;14.452;2022-12-22T08:05:42;98579.06;;;5.63;83.66
43115;BME280;28727;50.068;14.452;2022-12-22T08:08:15;98573.50;;;5.66;83.43
43115;BME280;28727;50.068;14.452;2022-12-22T08:10:47;98567.00;;;5.70;83.53
43115;BME280;28727;50.068;14.452;2022-12-22T08:13:19;98572.56;;;5.75;83.41
43115;BME280;28727;50.068;14.452;2022-12-22T08:15:51;98573.59;;;5.83;83.33
43115;BME280;28727;50.068;14.452;2022-12-22T08:18:25;98571.69;;;5.93;83.03
43115;BME280;28727;50.068;14.452;2022-12-22T08:20:57;98567.78;;;6.05;83.10
43115;BME280;28727;50.068;14.452;2022-12-22T08:23:29;98568.97;;;6.18;82.90
43115;BME280;28727;50.068;14.452;2022-12-22T08:28:49;98571.47;;;6.36;81.70
43115;BME280;28727;50.068;14.452;2022-12-22T08:31:25;98568.38;;;6.41;81.73
43115;BME280;28727;50.068;14.452;2022-12-22T08:34:00;98572.78;;;6.48;80.95
43115;BME280;28727;50.068;14.452;2022-12-22T08:36:39;98568.53;;;6.55;80.78
43115;BME280;28727;50.068;14.452;2022-12-22T08:39:12;98565.44;;;6.60;80.96
43115;BME280;28727;50.068;14.452;2022-12-22T08:41:45;98563.47;;;6.62;80.34
43115;BME280;28727;50.068;14.452;2022-12-22T08:44:26;98560.53;;;6.65;80.56
43115;BME280;28727;50.068;14.452;2022-12-22T08:47:01;98562.34;;;6.65;80.51
43115;BME280;28727;50.068;14.452;2022-12-22T08:49:33;98553.66;;;6.64;80.95
43115;BME280;28727;50.068;14.452;2022-12-22T08:52:04;98543.94;;;6.73;80.61
43115;BME280;28727;50.068;14.452;2022-12-22T08:54:36;98542.31;;;6.88;80.19
43115;BME280;28727;50.068;14.452;2022-12-22T08:57:08;98546.88;;;7.10;79.60
43115;BME280;28727;50.068;14.452;2022-12-22T08:59:40;98542.63;;;7.17;79.09
43115;BME280;28727;50.068;14.452;2022-12-22T09:02:12;98543.91;;;7.13;78.44
43115;BME280;28727;50.068;14.452;2022-12-22T09:04:44;98548.84;;;7.16;78.72
43115;BME280;28727;50.068;14.452;2022-12-22T09:07:16;98542.63;;;7.17;78.70
43115;BME280;28727;50.068;14.452;2022-12-22T09:09:48;98546.53;;;7.21;78.86
43115;BME280;28727;50.068;14.452;2022-12-22T09:12:21;98523.06;;;7.20;78.78
43115;BME280;28727;50.068;14.452;2022-12-22T09:14:53;98529.13;;;7.20;78.55
43115;BME280;28727;50.068;14.452;2022-12-22T09:17:25;98526.19;;;7.23;79.05
43115;BME280;28727;50.068;14.452;2022-12-22T09:19:56;98531.75;;;7.28;79.09
43115;BME280;28727;50.068;14.452;2022-12-22T09:22:28;98525.53;;;7.29;78.42
43115;BME280;28727;50.068;14.452;2022-12-22T09:25:00;98520.06;;;7.31;79.04
43115;BME280;28727;50.068;14.452;2022-12-22T09:27:31;98515.78;;;7.38;79.05
43115;BME280;28727;50.068;14.452;2022-12-22T09:30:04;98520.69;;;7.49;78.30
43115;BME280;28727;50.068;14.452;2022-12-22T09:32:36;98515.72;;;7.62;78.36
43115;BME280;28727;50.068;14.452;2022-12-22T09:35:07;98517.34;;;7.71;77.75
43115;BME280;28727;50.068;14.452;2022-12-22T09:37:39;98529.31;;;7.66;77.56
43115;BME280;28727;50.068;14.452;2022-12-22T09:40:11;98518.19;;;7.56;78.10
43115;BME280;28727;50.068;14.452;2022-12-22T09:42:43;98515.56;;;7.56;77.79
43115;BME280;28727;50.068;14.452;2022-12-22T09:45:16;98508.09;;;7.75;77.48
43115;BME280;28727;50.068;14.452;2022-12-22T09:47:52;98489.06;;;8.73;75.30
43115;BME280;28727;50.068;14.452;2022-12-22T09:50:26;98491.13;;;9.00;73.44
43115;BME280;28727;50.068;14.452;2022-12-22T09:53:00;98482.84;;;8.88;72.93
43115;BME280;28727;50.068;14.452;2022-12-22T09:55:44;98482.00;;;8.88;73.03
43115;BME280;28727;50.068;14.452;2022-12-22T09:58:31;98490.78;;;8.66;74.03
43115;BME280;28727;50.068;14.452;2022-12-22T10:06:38;98463.56;;;8.36;74.35
43115;BME280;28727;50.068;14.452;2022-12-22T10:09:19;98457.03;;;8.23;75.48
43115;BME280;28727;50.068;14.452;2022-12-22T10:12:15;98465.09;;;8.22;75.93
43115;BME280;28727;50.068;14.452;2022-12-22T10:14:50;98456.66;;;8.27;76.07
43115;BME280;28727;50.068;14.452;2022-12-22T10:17:32;98462.47;;;8.22;76.14
43115;BME280;28727;50.068;14.452;2022-12-22T10:25:35;98464.09;;;8.23;76.88
43115;BME280;28727;50.068;14.452;2022-12-22T10:28:37;98457.28;;;8.37;77.14
43115;BME280;28727;50.068;14.452;2022-12-22T10:31:18;98456.09;;;8.39;76.29
43115;BME280;28727;50.068;14.452;2022-12-22T10:33:56;98457.28;;;8.37;75.99
43115;BME280;28727;50.068;14.452;2022-12-22T10:36:30;98454.19;;;8.33;76.43
43115;BME280;28727;50.068;14.452;2022-12-22T10:41:37;98456.66;;;8.27;76.97
43115;BME280;28727;50.068;14.452;2022-12-22T10:44:19;98450.59;;;8.26;77.48
43115;BME280;28727;50.068;14.452;2022-12-22T10:46:54;98450.13;;;8.22;77.84
43115;BME280;28727;50.068;14.452;2022-12-22T10:49:27;98442.41;;;8.21;78.35
43115;BME280;28727;50.068;14.452;2022-12-22T10:52:14;98442.06;;;8.24;78.02
43115;BME280;28727;50.068;14.452;2022-12-22T10:54:46;98423.81;;;8.22;78.41
43115;BME280;28727;50.068;14.452;2022-12-22T11:00:08;98416.09;;;8.21;78.67
43115;BME280;28727;50.068;14.452;2022-12-22T11:02:56;98413.63;;;8.19;79.30
43115;BME280;28727;50.068;14.452;2022-12-22T11:05:30;98405.25;;;8.24;79.39
43115;BME280;28727;50.068;14.452;2022-12-22T11:08:16;98403.44;;;8.25;79.55
43115;BME280;28727;50.068;14.452;2022-12-22T11:11:04;98409.47;;;8.25;79.49
43115;BME280;28727;50.068;14.452;2022-12-22T11:19:23;98395.75;;;8.38;80.39
43115;BME280;28727;50.068;14.452;2022-12-22T11:25:20;98395.03;;;8.44;80.31
43115;BME280;28727;50.068;14.452;2022-12-22T11:28:07;98393.16;;;8.52;79.51
43115;BME280;28727;50.068;14.452;2022-12-22T11:34:08;98385.53;;;8.72;79.36
43115;BME280;28727;50.068;14.452;2022-12-22T11:46:20;98363.84;;;9.50;77.36
43115;BME280;28727;50.068;14.452;2022-12-22T11:49:07;98355.16;;;9.71;77.00
43115;BME280;28727;50.068;14.452;2022-12-22T11:54:46;98362.00;;;10.57;73.33
43115;BME280;28727;50.068;14.452;2022-12-22T11:57:55;98352.81;;;10.46;72.11
43115;BME280;28727;50.068;14.452;2022-12-22T12:00:38;98346.84;;;10.65;71.82
43115;BME280;28727;50.068;14.452;2022-12-22T12:04:05;98344.69;;;10.82;71.02
43115;BME280;28727;50.068;14.452;2022-12-22T12:07:02;98331.31;;;10.56;71.25
43115;BME280;28727;50.068;14.452;2022-12-22T12:09:48;98334.41;;;10.32;72.24
43115;BME280;28727;50.068;14.452;2022-12-22T12:12:30;98322.88;;;10.11;73.21
43115;BME280;28727;50.068;14.452;2022-12-22T12:15:33;98328.78;;;9.92;73.65
43115;BME280;28727;50.068;14.452;2022-12-22T12:21:28;98320.19;;;9.83;74.39
43115;BME280;28727;50.068;14.452;2022-12-22T12:30:17;98313.53;;;9.88;73.93
43115;BME280;28727;50.068;14.452;2022-12-22T12:35:59;98306.84;;;9.92;74.04
43115;BME280;28727;50.068;14.452;2022-12-22T12:41:46;98290.56;;;10.09;73.58
43115;BME280;28727;50.068;14.452;2022-12-22T12:44:24;98286.69;;;10.05;72.56
43115;BME280;28727;50.068;14.452;2022-12-22T12:47:17;98301.13;;;10.09;72.47
43115;BME280;28727;50.068;14.452;2022-12-22T12:58:04;98295.47;;;10.12;71.75
43115;BME280;28727;50.068;14.452;2022-12-22T13:00:43;98304.47;;;10.18;71.52
43115;BME280;28727;50.068;14.452;2022-12-22T13:09:23;98296.78;;;10.23;70.76
43115;BME280;28727;50.068;14.452;2022-12-22T13:12:53;98299.03;;;10.26;70.36
43115;BME280;28727;50.068;14.452;2022-12-22T13:15:36;98299.75;;;10.41;72.13
43115;BME280;28727;50.068;14.452;2022-12-22T13:21:15;98290.56;;;10.65;71.29
43115;BME280;28727;50.068;14.452;2022-12-22T13:27:01;98297.75;;;10.84;69.11
43115;BME280;28727;50.068;14.452;2022-12-22T13:29:40;98296.09;;;10.77;68.81
43115;BME280;28727;50.068;14.452;2022-12-22T13:32:33;98296.44;;;10.67;68.84
43115;BME280;28727;50.068;14.452;2022-12-22T13:35:42;98300.91;;;10.60;68.13
43115;BME280;28727;50.068;14.452;2022-12-22T13:38:35;98299.63;;;10.56;68.83
43115;BME280;28727;50.068;14.452;2022-12-22T13:41:25;98286.25;;;10.57;70.56
43115;BME280;28727;50.068;14.452;2022-12-22T13:44:07;98290.53;;;10.58;68.76
43115;BME280;28727;50.068;14.452;2022-12-22T13:46:42;98295.16;;;10.56;68.98
43115;BME280;28727;50.068;14.452;2022-12-22T13:49:17;98295.94;;;10.50;69.04
43115;BME280;28727;50.068;14.452;2022-12-22T13:52:12;98298.00;;;10.48;68.90
43115;BME280;28727;50.068;14.452;2022-12-22T13:54:45;98295.72;;;10.45;68.84
43115;BME280;28727;50.068;14.452;2022-12-22T13:57:20;98287.81;;;10.45;68.92
43115;BME280;28727;50.068;14.452;2022-12-22T13:59:52;98293.25;;;10.44;68.97
43115;BME280;28727;50.068;14.452;2022-12-22T14:02:31;98284.53;;;10.43;68.85
43115;BME280;28727;50.068;14.452;2022-12-22T14:05:09;98286.97;;;10.45;68.66
43115;BME280;28727;50.068;14.452;2022-12-22T14:08:02;98283.72;;;10.43;68.54
43115;BME280;28727;50.068;14.452;2022-12-22T14:10:36;98284.09;;;10.40;69.11
43115;BME280;28727;50.068;14.452;2022-12-22T14:13:16;98280.03;;;10.37;68.97
43115;BME280;28727;50.068;14.452;2022-12-22T14:15:58;98288.97;;;10.36;69.12
43115;BME280;28727;50.068;14.452;2022-12-22T14:18:31;98286.28;;;10.30;68.81
43115;BME280;28727;50.068;14.452;2022-12-22T14:21:04;98283.84;;;10.28;69.15
43115;BME280;28727;50.068;14.452;2022-12-22T14:23:41;98274.47;;;10.25;68.95
43115;BME280;28727;50.068;14.452;2022-12-22T14:26:18;98277.56;;;10.29;73.10
43115;BME280;28727;50.068;14.452;2022-12-22T14:28:55;98279.19;;;10.30;69.41
43115;BME280;28727;50.068;14.452;2022-12-22T14:31:27;98280.28;;;10.49;70.95
43115;BME280;28727;50.068;14.452;2022-12-22T14:33:59;98285.78;;;10.47;69.79
43115;BME280;28727;50.068;14.452;2022-12-22T14:36:37;98271.50;;;10.35;68.99
43115;BME280;28727;50.068;14.452;2022-12-22T14:39:23;98266.00;;;10.30;68.99
43115;BME280;28727;50.068;14.452;2022-12-22T14:41:58;98278.50;;;10.21;69.27
43115;BME280;28727;50.068;14.452;2022-12-22T14:44:41;98280.91;;;10.16;69.54
43115;BME280;28727;50.068;14.452;2022-12-22T14:47:16;98289.97;;;10.14;69.80
43115;BME280;28727;50.068;14.452;2022-12-22T14:49:58;98289.38;;;10.12;69.74
43115;BME280;28727;50.068;14.452;2022-12-22T14:52:57;98290.31;;;10.04;69.81
43115;BME280;28727;50.068;14.452;2022-12-22T14:55:34;98295.78;;;10.03;69.87
43115;BME280;28727;50.068;14.452;2022-12-22T14:58:33;98285.22;;;10.03;70.25
43115;BME280;28727;50.068;14.452;2022-12-22T15:01:26;98283.41;;;10.03;70.20
43115;BME280;28727;50.068;14.452;2022-12-22T15:06:38;98289.31;;;10.05;69.81
43115;BME280;28727;50.068;14.452;2022-12-22T15:11:46;98290.56;;;10.09;69.99
43115;BME280;28727;50.068;14.452;2022-12-22T15:14:28;98288.56;;;10.11;69.84
43115;BME280;28727;50.068;14.452;2022-12-22T15:17:18;98285.28;;;10.09;69.68
43115;BME280;28727;50.068;14.452;2022-12-22T15:19:54;98287.94;;;10.09;70.11
43115;BME280;28727;50.068;14.452;2022-12-22T15:22:28;98286.50;;;10.07;70.55
43115;BME280;28727;50.068;14.452;2022-12-22T15:25:00;98291.78;;;10.07;70.48
43115;BME280;28727;50.068;14.452;2022-12-22T15:27:34;98285.69;;;10.06;70.69
43115;BME280;28727;50.068;14.452;2022-12-22T15:30:06;98283.88;;;10.07;70.50
43115;BME280;28727;50.068;14.452;2022-12-22T15:32:39;98274.91;;;10.01;70.79
43115;BME280;28727;50.068;14.452;2022-12-22T15:35:23;98279.34;;;10.01;71.25
43115;BME280;28727;50.068;14.452;2022-12-22T15:37:56;98279.13;;;10.02;70.92
43115;BME280;28727;50.068;14.452;2022-12-22T15:40:28;98275.69;;;10.02;71.24
43115;BME280;28727;50.068;14.452;2022-12-22T15:43:00;98283.00;;;10.00;71.39